Time;durP1;ratioP1;P1;durP2;ratioP2;P2;SDS_P1;SDS_P2;PMS_P1;PMS_P2;Temp;Humidity;BMP_temperature;BMP_pressure;BME280_temperature;BME280_humidity;BME280_pressure;Samples;Min_cycle;Max_cycle;Signal;HPM_P1;HPM_P2
2023/02/24 00:01:58;;;;;;;;;;;;;;;2.21;100.00;-18087.25;4970477;28;19918;-85
2023/02/24 00:04:24;;;;;;;;;;;;;;;2.19;100.00;-18086.72;4968687;28;19964;-86
2023/02/24 00:06:49;;;;;;;;;;;;;;;2.10;100.00;-18084.06;4951885;28;19930;-85
2023/02/24 00:09:16;;;;;;;;;;;;;;;2.05;100.00;-18082.69;4960592;28;20449;-86
2023/02/24 00:11:43;;;;;;;;;;;;;;;2.04;100.00;-18082.56;4969441;28;20449;-85
2023/02/24 00:14:11;;;;;;;;;;;;;;;2.02;100.00;-18082.13;4967786;28;19997;-86
2023/02/24 00:16:36;;;;;;;;;;;;;;;2.03;100.00;-18082.41;4970719;28;19993;-85
2023/02/24 00:19:02;;;;;;;;;;;;;;;2.01;100.00;-18081.88;4970620;28;19954;-86
2023/02/24 00:21:28;;;;;;;;;;;;;;;1.98;100.00;-18081.03;4968699;28;20353;-86
2023/02/24 00:23:53;;;;;;;;;;;;;;;1.96;100.00;-18080.47;4969888;28;19965;-85
2023/02/24 00:26:19;;;;;;;;;;;;;;;1.94;100.00;-18079.94;4970044;28;19922;-85
2023/02/24 00:28:45;;;;;;;;;;;;;;;1.92;100.00;-18079.22;4970175;28;19922;-85
2023/02/24 00:31:15;;;;;;;;;;;;;;;1.93;100.00;-18079.66;4970068;28;20427;-85
2023/02/24 00:33:41;;;;;;;;;;;;;;;1.86;100.00;-18077.56;4970383;28;19933;-85
2023/02/24 00:36:07;;;;;;;;;;;;;;;1.89;100.00;-18078.53;4953756;28;19954;-85
2023/02/24 00:38:34;;;;;;;;;;;;;;;1.87;100.00;-18078.00;4968527;28;20008;-85
2023/02/24 00:41:01;;;;;;;;;;;;;;;1.83;100.00;-18076.75;4970133;28;20016;-85
2023/02/24 00:43:26;;;;;;;;;;;;;;;1.78;100.00;-18075.63;4968718;28;19969;-85
2023/02/24 00:45:52;;;;;;;;;;;;;;;1.82;100.00;-18076.59;4970443;28;19933;-85
2023/02/24 00:48:17;;;;;;;;;;;;;;;1.79;100.00;-18075.78;4969430;28;19954;-85
2023/02/24 00:50:43;;;;;;;;;;;;;;;1.80;100.00;-18076.06;4968695;28;20270;-85
2023/02/24 00:53:08;;;;;;;;;;;;;;;1.83;100.00;-18076.75;4984538;28;19926;-85
2023/02/24 00:55:35;;;;;;;;;;;;;;;1.79;100.00;-18075.91;4967099;28;19927;-85
2023/02/24 00:58:06;;;;;;;;;;;;;;;1.77;100.00;-18075.34;4971757;28;19918;-86
2023/02/24 01:00:34;;;;;;;;;;;;;;;1.72;100.00;-18073.84;4971648;28;19926;-85
2023/02/24 01:03:00;;;;;;;;;;;;;;;1.67;100.00;-18072.44;4973467;28;19957;-85
2023/02/24 01:05:27;;;;;;;;;;;;;;;1.60;100.00;-18070.66;4969277;28;19977;-85
2023/02/24 01:07:52;;;;;;;;;;;;;;;1.53;100.00;-18068.84;4968842;28;19930;-85
2023/02/24 01:10:19;;;;;;;;;;;;;;;1.43;100.00;-18066.09;4969657;28;19937;-86
2023/02/24 01:12:52;;;;;;;;;;;;;;;1.44;100.00;-18066.38;4969648;28;19929;-86
2023/02/24 01:15:19;;;;;;;;;;;;;;;1.39;100.00;-18064.97;4971386;28;19989;-85
2023/02/24 01:17:45;;;;;;;;;;;;;;;1.37;100.00;-18064.44;4973063;28;19918;-85
2023/02/24 01:20:15;;;;;;;;;;;;;;;1.37;100.00;-18064.28;4954897;28;19936;-85
2023/02/24 01:22:41;;;;;;;;;;;;;;;1.35;100.00;-18063.88;4972299;28;19969;-85
2023/02/24 01:25:07;;;;;;;;;;;;;;;1.36;100.00;-18064.16;4974265;28;20420;-85
2023/02/24 01:27:35;;;;;;;;;;;;;;;1.39;100.00;-18064.97;4974179;28;19922;-85
2023/02/24 01:30:01;;;;;;;;;;;;;;;1.35;100.00;-18063.88;4973397;28;19953;-85
2023/02/24 01:32:30;;;;;;;;;;;;;;;1.31;100.00;-18062.75;4973422;28;20465;-85
2023/02/24 01:34:56;;;;;;;;;;;;;;;1.34;100.00;-18063.59;4972949;28;19985;-86
2023/02/24 01:37:21;;;;;;;;;;;;;;;1.35;100.00;-18063.88;4972198;28;20345;-86
2023/02/24 01:39:47;;;;;;;;;;;;;;;1.29;100.00;-18062.22;4977239;28;19922;-86
2023/02/24 01:42:15;;;;;;;;;;;;;;;1.28;100.00;-18061.94;4973315;28;19937;-85
2023/02/24 01:44:42;;;;;;;;;;;;;;;1.28;100.00;-18061.94;4954904;28;19926;-86
2023/02/24 01:47:08;;;;;;;;;;;;;;;1.29;100.00;-18062.34;4970634;28;20017;-85
2023/02/24 01:49:36;;;;;;;;;;;;;;;1.24;100.00;-18060.97;4970324;28;20352;-84
2023/02/24 01:52:14;;;;;;;;;;;;;;;1.18;100.00;-18059.16;4970615;28;19934;-85
2023/02/24 01:54:42;;;;;;;;;;;;;;;1.17;100.00;-18059.03;4952773;28;19926;-85
2023/02/24 01:57:09;;;;;;;;;;;;;;;1.22;100.00;-18060.28;4972807;28;19923;-85
2023/02/24 01:59:35;;;;;;;;;;;;;;;1.21;100.00;-18060.00;4971667;28;20008;-84
2023/02/24 02:02:05;;;;;;;;;;;;;;;1.21;100.00;-18060.00;4953804;28;20360;-86
2023/02/24 02:04:37;;;;;;;;;;;;;;;1.15;100.00;-18058.34;4971543;28;19922;-85
2023/02/24 02:07:03;;;;;;;;;;;;;;;1.17;100.00;-18058.88;4969214;28;19929;-84
2023/02/24 02:09:28;;;;;;;;;;;;;;;1.09;100.00;-18056.94;4970552;28;19922;-85
2023/02/24 02:11:53;;;;;;;;;;;;;;;1.00;100.00;-18054.47;4970477;28;19930;-85
2023/02/24 02:14:23;;;;;;;;;;;;;;;1.00;100.00;-18054.47;4969029;28;20013;-85
2023/02/24 02:17:01;;;;;;;;;;;;;;;0.94;100.00;-18052.78;4965868;28;20001;-84
2023/02/24 02:19:45;;;;;;;;;;;;;;;0.92;100.00;-18052.25;4972431;28;20005;-85
2023/02/24 02:22:25;;;;;;;;;;;;;;;0.95;100.00;-18053.06;4969154;28;20301;-85
2023/02/24 02:24:57;;;;;;;;;;;;;;;0.94;100.00;-18052.66;4957885;28;19950;-84
2023/02/24 02:27:43;;;;;;;;;;;;;;;0.88;100.00;-18051.28;4967315;28;19922;-85
2023/02/24 02:30:18;;;;;;;;;;;;;;;0.86;100.00;-18050.56;4971867;28;20003;-85
2023/02/24 02:33:03;;;;;;;;;;;;;;;0.87;100.00;-18050.84;4947722;28;19976;-84
2023/02/24 02:35:47;;;;;;;;;;;;;;;0.88;100.00;-18051.13;4971213;28;19933;-85
2023/02/24 02:38:24;;;;;;;;;;;;;;;0.88;100.00;-18051.28;4954531;28;19922;-85
2023/02/24 02:40:58;;;;;;;;;;;;;;;0.88;100.00;-18051.13;4969676;28;19928;-85
2023/02/24 02:43:24;;;;;;;;;;;;;;;0.78;100.00;-18048.50;4949904;28;20334;-84
2023/02/24 02:45:56;;;;;;;;;;;;;;;0.87;100.00;-18050.84;4970217;28;19922;-85
2023/02/24 02:48:33;;;;;;;;;;;;;;;0.84;100.00;-18050.03;4968854;28;19980;-85
2023/02/24 02:51:10;;;;;;;;;;;;;;;0.77;100.00;-18048.22;4969100;28;20056;-84
2023/02/24 02:53:36;;;;;;;;;;;;;;;0.78;100.00;-18048.50;4969575;28;20494;-85
2023/02/24 02:56:14;;;;;;;;;;;;;;;0.81;100.00;-18049.19;4970559;28;19937;-85
2023/02/24 02:58:44;;;;;;;;;;;;;;;0.80;100.00;-18048.91;4953417;28;19926;-82
2023/02/24 03:01:11;;;;;;;;;;;;;;;0.82;100.00;-18049.59;4969825;28;19930;-83
2023/02/24 03:03:43;;;;;;;;;;;;;;;0.81;100.00;-18049.19;4970847;28;19929;-84
2023/02/24 03:06:13;;;;;;;;;;;;;;;0.77;100.00;-18048.22;4967075;28;19922;-84
2023/02/24 03:08:42;;;;;;;;;;;;;;;0.75;100.00;-18047.69;4969434;28;19922;-82
2023/02/24 03:11:09;;;;;;;;;;;;;;;0.76;100.00;-18047.81;4972270;28;20024;-83
2023/02/24 03:13:39;;;;;;;;;;;;;;;0.79;100.00;-18048.78;4971165;28;20525;-83
2023/02/24 03:16:07;;;;;;;;;;;;;;;0.81;100.00;-18049.19;4972359;28;20457;-84
2023/02/24 03:18:36;;;;;;;;;;;;;;;0.72;100.00;-18046.84;4954775;28;19922;-85
2023/02/24 03:21:06;;;;;;;;;;;;;;;0.78;100.00;-18048.38;4968269;28;19933;-84
2023/02/24 03:23:35;;;;;;;;;;;;;;;0.72;100.00;-18046.84;4970691;28;20381;-84
2023/02/24 03:26:15;;;;;;;;;;;;;;;0.71;100.00;-18046.56;4971276;28;19930;-84
2023/02/24 03:28:45;;;;;;;;;;;;;;;0.70;100.00;-18046.28;4971409;28;19965;-82
2023/02/24 03:31:18;;;;;;;;;;;;;;;0.61;100.00;-18043.94;4972639;28;20405;-85
2023/02/24 03:33:55;;;;;;;;;;;;;;;0.65;100.00;-18045.03;4953375;28;20380;-84
2023/02/24 03:36:20;;;;;;;;;;;;;;;0.65;100.00;-18045.03;4970825;28;19984;-84
2023/02/24 03:38:49;;;;;;;;;;;;;;;0.63;100.00;-18044.34;4971776;28;20157;-84
2023/02/24 03:41:15;;;;;;;;;;;;;;;0.70;100.00;-18046.16;4970043;28;19937;-85
2023/02/24 03:43:43;;;;;;;;;;;;;;;0.71;100.00;-18046.44;4971733;28;19926;-82
2023/02/24 03:46:09;;;;;;;;;;;;;;;0.71;100.00;-18046.44;4973233;28;19922;-84
2023/02/24 03:48:37;;;;;;;;;;;;;;;0.72;100.00;-18046.84;4972745;28;19948;-82
2023/02/24 03:51:03;;;;;;;;;;;;;;;0.67;100.00;-18045.47;4972942;28;20404;-85
2023/02/24 03:53:40;;;;;;;;;;;;;;;0.68;100.00;-18045.72;4970973;28;19937;-84
2023/02/24 03:56:05;;;;;;;;;;;;;;;0.71;100.00;-18046.56;4973706;28;19929;-82
2023/02/24 03:58:33;;;;;;;;;;;;;;;0.67;100.00;-18045.59;4972398;28;20584;-84
2023/02/24 04:01:11;;;;;;;;;;;;;;;0.65;100.00;-18044.91;4969113;28;19922;-84
2023/02/24 04:03:40;;;;;;;;;;;;;;;0.67;100.00;-18045.47;4972881;28;19933;-85
2023/02/24 04:06:05;;;;;;;;;;;;;;;0.64;100.00;-18044.75;4972718;28;19928;-85
2023/02/24 04:08:34;;;;;;;;;;;;;;;0.63;100.00;-18044.34;4948945;28;19993;-84
2023/02/24 04:11:04;;;;;;;;;;;;;;;0.64;100.00;-18044.63;4971271;28;19930;-85
2023/02/24 04:13:37;;;;;;;;;;;;;;;0.66;100.00;-18045.31;4971543;28;20467;-82
2023/02/24 04:16:15;;;;;;;;;;;;;;;0.70;100.00;-18046.16;4970292;28;19926;-83
2023/02/24 04:18:44;;;;;;;;;;;;;;;0.64;100.00;-18044.75;4949098;28;20009;-82
2023/02/24 04:21:09;;;;;;;;;;;;;;;0.61;100.00;-18043.78;4966272;28;19964;-84
2023/02/24 04:23:38;;;;;;;;;;;;;;;0.62;100.00;-18044.22;4966382;28;19923;-82
2023/02/24 04:26:03;;;;;;;;;;;;;;;0.62;100.00;-18044.06;4967601;28;19940;-84
2023/02/24 04:28:29;;;;;;;;;;;;;;;0.68;100.00;-18045.88;4967873;28;20009;-82
2023/02/24 04:30:57;;;;;;;;;;;;;;;0.65;100.00;-18045.03;4968333;28;20409;-82
2023/02/24 04:33:23;;;;;;;;;;;;;;;0.66;100.00;-18045.31;4963923;28;20013;-84
2023/02/24 04:35:49;;;;;;;;;;;;;;;0.67;100.00;-18045.59;4971228;28;20009;-85
2023/02/24 04:38:14;;;;;;;;;;;;;;;0.63;100.00;-18044.50;4971337;28;19973;-84
2023/02/24 04:40:41;;;;;;;;;;;;;;;0.63;100.00;-18044.50;4970440;28;19926;-84
2023/02/24 04:43:07;;;;;;;;;;;;;;;0.66;100.00;-18045.19;4972264;28;19922;-85
2023/02/24 04:45:32;;;;;;;;;;;;;;;0.71;100.00;-18046.44;4970944;28;20021;-82
2023/02/24 04:48:01;;;;;;;;;;;;;;;0.70;100.00;-18046.16;4954328;28;20591;-84
2023/02/24 04:50:28;;;;;;;;;;;;;;;0.75;100.00;-18047.69;4969548;28;19922;-84
2023/02/24 04:53:01;;;;;;;;;;;;;;;0.74;100.00;-18047.25;4969326;28;19930;-83
2023/02/24 04:55:28;;;;;;;;;;;;;;;0.74;100.00;-18047.25;4967980;28;19926;-84
2023/02/24 04:57:54;;;;;;;;;;;;;;;0.77;100.00;-18048.09;4970108;28;19969;-84
2023/02/24 05:00:21;;;;;;;;;;;;;;;0.75;100.00;-18047.53;4969952;28;19929;-83
2023/02/24 05:02:48;;;;;;;;;;;;;;;0.82;100.00;-18049.47;4972255;28;20009;-84
2023/02/24 05:05:14;;;;;;;;;;;;;;;0.84;100.00;-18050.03;4969965;28;19957;-84
2023/02/24 05:07:39;;;;;;;;;;;;;;;0.82;100.00;-18049.47;4973425;28;19954;-84
2023/02/24 05:12:32;;;;;;;;;;;;;;;0.84;100.00;-18050.03;4982863;28;19937;-84
2023/02/24 05:15:00;;;;;;;;;;;;;;;0.85;100.00;-18050.31;4983414;28;19922;-82
2023/02/24 05:17:29;;;;;;;;;;;;;;;0.87;100.00;-18050.84;4984131;28;20076;-81
2023/02/24 05:22:39;;;;;;;;;;;;;;;0.88;100.00;-18051.28;4972321;28;19925;-84
2023/02/24 05:25:04;;;;;;;;;;;;;;;0.89;100.00;-18051.56;4976325;28;19927;-83
2023/02/24 05:27:30;;;;;;;;;;;;;;;0.91;100.00;-18051.97;4963117;28;20296;-83
2023/02/24 05:29:55;;;;;;;;;;;;;;;0.89;100.00;-18051.41;4965802;28;19969;-83
2023/02/24 05:32:20;;;;;;;;;;;;;;;0.90;100.00;-18051.81;4969313;28;19930;-81
2023/02/24 05:34:46;;;;;;;;;;;;;;;0.91;100.00;-18051.97;4967878;28;19929;-81
2023/02/24 05:37:11;;;;;;;;;;;;;;;0.94;100.00;-18052.78;4958891;28;20412;-84
2023/02/24 05:39:36;;;;;;;;;;;;;;;0.94;100.00;-18052.78;4959273;28;19927;-81
2023/02/24 05:42:05;;;;;;;;;;;;;;;0.97;100.00;-18053.50;4967042;28;19958;-82
2023/02/24 05:44:31;;;;;;;;;;;;;;;0.95;100.00;-18053.06;4964131;28;20001;-81
2023/02/24 05:46:59;;;;;;;;;;;;;;;0.96;100.00;-18053.22;4971335;28;20369;-82
2023/02/24 05:49:28;;;;;;;;;;;;;;;0.99;100.00;-18054.03;4964771;28;20385;-82
2023/02/24 05:51:55;;;;;;;;;;;;;;;1.01;100.00;-18054.75;4971892;28;19988;-80
2023/02/24 05:54:27;;;;;;;;;;;;;;;1.04;100.00;-18055.44;4970279;28;19934;-81
2023/02/24 05:56:55;;;;;;;;;;;;;;;1.02;100.00;-18055.00;4972398;28;20020;-81
2023/02/24 05:59:21;;;;;;;;;;;;;;;1.05;100.00;-18055.69;4971557;28;19926;-81
2023/02/24 06:01:47;;;;;;;;;;;;;;;1.04;100.00;-18055.56;4961431;28;20008;-80
2023/02/24 06:04:19;;;;;;;;;;;;;;;1.07;100.00;-18056.41;4964001;28;19922;-83
2023/02/24 06:06:51;;;;;;;;;;;;;;;1.13;100.00;-18058.06;4964630;28;20364;-82
2023/02/24 06:09:17;;;;;;;;;;;;;;;1.16;100.00;-18058.63;4972339;28;19919;-82
2023/02/24 06:11:44;;;;;;;;;;;;;;;1.14;100.00;-18058.19;4967891;28;20560;-81
2023/02/24 06:14:10;;;;;;;;;;;;;;;1.16;100.00;-18058.63;4968149;28;19926;-83
2023/02/24 06:16:36;;;;;;;;;;;;;;;1.17;100.00;-18058.88;4972060;28;19922;-84
2023/02/24 06:19:02;;;;;;;;;;;;;;;1.22;100.00;-18060.28;4966418;28;20040;-82
2023/02/24 06:21:28;;;;;;;;;;;;;;;1.25;100.00;-18061.25;4967729;28;21230;-82
2023/02/24 06:23:57;;;;;;;;;;;;;;;1.24;100.00;-18060.81;4966754;28;20018;-82
2023/02/24 06:26:23;;;;;;;;;;;;;;;1.28;100.00;-18061.94;4967354;28;19922;-82
2023/02/24 06:28:52;;;;;;;;;;;;;;;1.32;100.00;-18063.19;4966032;28;20286;-80
2023/02/24 06:31:19;;;;;;;;;;;;;;;1.32;100.00;-18063.03;4962532;28;19926;-82
2023/02/24 06:33:45;;;;;;;;;;;;;;;1.37;100.00;-18064.44;4964529;28;19926;-83
2023/02/24 06:36:13;;;;;;;;;;;;;;;1.39;100.00;-18064.84;4968430;28;19992;-82
2023/02/24 06:38:38;;;;;;;;;;;;;;;1.33;100.00;-18063.47;4971327;28;19923;-82
2023/02/24 06:41:09;;;;;;;;;;;;;;;1.35;100.00;-18063.88;4966964;28;19944;-82
2023/02/24 06:43:35;;;;;;;;;;;;;;;1.42;100.00;-18065.81;4971800;28;20377;-83
2023/02/24 06:46:01;;;;;;;;;;;;;;;1.41;100.00;-18065.53;4972969;28;19951;-81
2023/02/24 06:48:27;;;;;;;;;;;;;;;1.43;100.00;-18065.94;4973943;28;20377;-82
2023/02/24 06:50:53;;;;;;;;;;;;;;;1.46;100.00;-18066.91;4964265;28;20397;-82
2023/02/24 06:53:20;;;;;;;;;;;;;;;1.51;100.00;-18068.31;4963787;28;19932;-81
2023/02/24 06:55:47;;;;;;;;;;;;;;;1.53;100.00;-18068.84;4969175;28;19926;-84
2023/02/24 06:58:16;;;;;;;;;;;;;;;1.55;100.00;-18069.28;4971300;28;19922;-82
2023/02/24 07:00:44;;;;;;;;;;;;;;;1.57;100.00;-18069.81;4975996;28;19969;-82
2023/02/24 07:03:13;;;;;;;;;;;;;;;1.58;100.00;-18070.09;4963034;28;19949;-82
2023/02/24 07:05:48;;;;;;;;;;;;;;;1.63;100.00;-18071.34;4962643;28;19939;-83
2023/02/24 07:08:16;;;;;;;;;;;;;;;1.65;100.00;-18072.03;4966486;28;20386;-81
2023/02/24 07:10:41;;;;;;;;;;;;;;;1.67;100.00;-18072.59;4988259;28;20447;-85
2023/02/24 07:13:08;;;;;;;;;;;;;;;1.68;100.00;-18072.88;4973636;28;19922;-82
2023/02/24 07:15:35;;;;;;;;;;;;;;;1.71;100.00;-18073.56;4965105;28;19918;-84
2023/02/24 07:18:01;;;;;;;;;;;;;;;1.75;100.00;-18074.81;4963907;28;19982;-84
2023/02/24 07:20:28;;;;;;;;;;;;;;;1.79;100.00;-18075.78;4967230;28;19922;-83
2023/02/24 07:22:54;;;;;;;;;;;;;;;1.82;100.00;-18076.59;4975060;28;19922;-83
2023/02/24 07:25:32;;;;;;;;;;;;;;;1.80;100.00;-18076.19;4961628;28;20088;-84
2023/02/24 07:28:00;;;;;;;;;;;;;;;1.83;100.00;-18076.88;4970076;28;19926;-86
2023/02/24 07:30:26;;;;;;;;;;;;;;;1.82;100.00;-18076.59;4965933;28;20502;-81
2023/02/24 07:32:54;;;;;;;;;;;;;;;1.86;100.00;-18077.56;4970158;28;19918;-84
2023/02/24 07:35:19;;;;;;;;;;;;;;;1.90;100.00;-18078.81;4972359;28;20063;-85
2023/02/24 07:37:47;;;;;;;;;;;;;;;1.91;100.00;-18079.09;4967781;28;19981;-82
2023/02/24 07:40:16;;;;;;;;;;;;;;;1.94;100.00;-18079.94;4971258;28;19926;-81
2023/02/24 07:42:41;;;;;;;;;;;;;;;1.95;100.00;-18080.19;4974693;28;19922;-86
2023/02/24 07:45:07;;;;;;;;;;;;;;;1.99;100.00;-18081.16;4969465;28;20585;-82
2023/02/24 07:47:32;;;;;;;;;;;;;;;1.99;100.00;-18081.16;4975310;28;19918;-82
2023/02/24 07:49:59;;;;;;;;;;;;;;;2.00;100.00;-18081.59;4968788;28;20293;-84
2023/02/24 07:52:24;;;;;;;;;;;;;;;2.01;100.00;-18081.88;4986295;28;20020;-81
2023/02/24 07:54:49;;;;;;;;;;;;;;;2.05;100.00;-18082.69;4972909;28;19997;-84
2023/02/24 07:57:17;;;;;;;;;;;;;;;2.07;100.00;-18083.25;4982529;28;20200;-80
2023/02/24 07:59:45;;;;;;;;;;;;;;;2.09;100.00;-18083.94;4989765;28;19918;-81
2023/02/24 08:02:12;;;;;;;;;;;;;;;2.11;100.00;-18084.34;4989609;28;19918;-81
2023/02/24 08:04:39;;;;;;;;;;;;;;;2.10;100.00;-18084.22;4990038;28;19925;-81
2023/02/24 08:07:11;;;;;;;;;;;;;;;2.13;100.00;-18085.03;4981785;28;19918;-81
2023/02/24 08:10:08;;;;;;;;;;;;;;;2.15;100.00;-18085.47;4979029;28;19918;-83
2023/02/24 08:12:33;;;;;;;;;;;;;;;2.17;100.00;-18086.16;4992568;28;19922;-83
2023/02/24 08:14:59;;;;;;;;;;;;;;;2.16;100.00;-18085.88;4993615;28;19926;-82
2023/02/24 08:17:25;;;;;;;;;;;;;;;2.20;100.00;-18086.97;4993539;28;19972;-84
2023/02/24 08:20:50;;;;;;;;;;;;;;;2.19;100.00;-18086.72;4975047;28;19922;-85
2023/02/24 08:22:37;;;;;;;;;;;;;;;2.23;100.00;-18087.66;4973998;28;19980;-82
2023/02/24 08:25:05;;;;;;;;;;;;;;;2.22;100.00;-18087.41;4979067;28;20000;-84
2023/02/24 08:27:32;;;;;;;;;;;;;;;2.32;100.00;-18090.03;4977881;28;19918;-83
2023/02/24 08:29:58;;;;;;;;;;;;;;;2.37;100.00;-18091.41;4989450;28;19922;-83
2023/02/24 08:32:32;;;;;;;;;;;;;;;2.35;100.00;-18091.00;4991568;28;20493;-83
2023/02/24 08:35:01;;;;;;;;;;;;;;;2.38;100.00;-18091.81;4973694;28;19930;-84
2023/02/24 08:37:32;;;;;;;;;;;;;;;2.40;100.00;-18092.38;4972395;28;20086;-84
2023/02/24 08:39:57;;;;;;;;;;;;;;;2.43;100.00;-18093.19;4979474;28;19949;-85
2023/02/24 08:42:29;;;;;;;;;;;;;;;2.39;100.00;-18092.09;4974561;28;20313;-82
2023/02/24 08:44:56;;;;;;;;;;;;;;;2.40;100.00;-18092.25;4973527;28;20023;-83
2023/02/24 08:47:29;;;;;;;;;;;;;;;2.41;100.00;-18092.66;4973790;28;19922;-82
2023/02/24 08:49:55;;;;;;;;;;;;;;;2.42;100.00;-18092.94;4967949;28;19957;-81
2023/02/24 08:52:20;;;;;;;;;;;;;;;2.43;100.00;-18093.19;4973043;28;20100;-85
2023/02/24 08:54:48;;;;;;;;;;;;;;;2.43;100.00;-18093.19;4966000;28;19934;-85
2023/02/24 08:57:16;;;;;;;;;;;;;;;2.42;100.00;-18092.78;4970941;28;19918;-83
2023/02/24 08:59:48;;;;;;;;;;;;;;;2.41;100.00;-18092.66;4963211;28;19942;-84
2023/02/24 09:02:18;;;;;;;;;;;;;;;2.36;100.00;-18091.28;4975075;28;19926;-83
2023/02/24 09:04:44;;;;;;;;;;;;;;;2.34;100.00;-18090.72;4973150;28;19993;-83
2023/02/24 09:07:14;;;;;;;;;;;;;;;2.30;100.00;-18089.59;4984624;28;19955;-83
2023/02/24 09:09:41;;;;;;;;;;;;;;;2.31;100.00;-18089.88;4972066;28;19957;-82
2023/02/24 09:12:06;;;;;;;;;;;;;;;2.29;100.00;-18089.34;4964542;28;19928;-82
2023/02/24 09:14:36;;;;;;;;;;;;;;;2.33;100.00;-18090.28;4961773;28;20013;-84
2023/02/24 09:17:04;;;;;;;;;;;;;;;2.30;100.00;-18089.59;4964639;28;19989;-83
2023/02/24 09:22:30;;;;;;;;;;;;;;;2.32;100.00;-18090.03;4947862;28;19933;-83
2023/02/24 09:25:19;;;;;;;;;;;;;;;2.26;100.00;-18088.50;4973216;28;20312;-84
2023/02/24 09:28:06;;;;;;;;;;;;;;;2.28;100.00;-18088.91;4974052;28;19953;-83
2023/02/24 09:30:35;;;;;;;;;;;;;;;2.26;100.00;-18088.50;4977872;28;19918;-83
2023/02/24 09:33:17;;;;;;;;;;;;;;;2.25;100.00;-18088.22;4983881;28;20017;-81
2023/02/24 09:35:45;;;;;;;;;;;;;;;2.24;100.00;-18088.09;4978110;28;20266;-84
2023/02/24 09:38:15;;;;;;;;;;;;;;;2.26;100.00;-18088.50;4976938;28;19918;-84
2023/02/24 09:40:47;;;;;;;;;;;;;;;2.28;100.00;-18089.06;4966207;28;19930;-82
2023/02/24 09:43:19;;;;;;;;;;;;;;;2.27;100.00;-18088.78;4971039;28;20401;-82
2023/02/24 09:46:13;;;;;;;;;;;;;;;2.27;100.00;-18088.78;4965208;28;20340;-82
2023/02/24 09:48:46;;;;;;;;;;;;;;;2.25;100.00;-18088.38;4967702;28;19924;-80
2023/02/24 09:51:20;;;;;;;;;;;;;;;2.24;100.00;-18087.94;4971772;28;19977;-83
2023/02/24 09:53:51;;;;;;;;;;;;;;;2.25;100.00;-18088.38;4966079;28;19922;-83
2023/02/24 09:56:16;;;;;;;;;;;;;;;2.24;100.00;-18088.09;4971678;28;20592;-80
2023/02/24 09:58:47;;;;;;;;;;;;;;;2.23;100.00;-18087.66;4971023;28;19979;-81
2023/02/24 10:01:19;;;;;;;;;;;;;;;2.29;100.00;-18089.19;4975544;28;20049;-81
2023/02/24 10:03:50;;;;;;;;;;;;;;;2.32;100.00;-18090.16;4968818;28;20243;-83
2023/02/24 10:06:22;;;;;;;;;;;;;;;2.39;100.00;-18092.09;4970428;28;19930;-81
2023/02/24 10:09:10;;;;;;;;;;;;;;;2.37;100.00;-18091.53;4986364;28;19918;-82
2023/02/24 10:11:37;;;;;;;;;;;;;;;2.41;100.00;-18092.66;4967933;28;19922;-81
2023/02/24 10:14:05;;;;;;;;;;;;;;;2.38;100.00;-18091.69;4975583;28;20004;-82
2023/02/24 10:16:40;;;;;;;;;;;;;;;2.37;100.00;-18091.41;4974158;28;19922;-81
2023/02/24 10:19:40;;;;;;;;;;;;;;;2.36;100.00;-18091.13;4975401;28;19918;-80
2023/02/24 10:22:21;;;;;;;;;;;;;;;2.38;100.00;-18091.69;4970599;28;19925;-84
2023/02/24 10:25:00;;;;;;;;;;;;;;;2.42;100.00;-18092.78;4977858;28;19944;-81
2023/02/24 10:27:36;;;;;;;;;;;;;;;2.45;100.00;-18093.63;4976755;28;19937;-80
2023/02/24 10:30:09;;;;;;;;;;;;;;;2.41;100.00;-18092.50;4976154;28;20468;-82
2023/02/24 10:32:35;;;;;;;;;;;;;;;2.46;100.00;-18094.03;4979315;28;19926;-82
2023/02/24 10:35:00;;;;;;;;;;;;;;;2.50;100.00;-18095.00;4976126;28;19929;-81
2023/02/24 10:37:27;;;;;;;;;;;;;;;2.46;100.00;-18093.91;4967281;28;19933;-83
2023/02/24 10:39:56;;;;;;;;;;;;;;;2.47;100.00;-18094.31;4968459;28;20001;-82
2023/02/24 10:42:30;;;;;;;;;;;;;;;2.54;100.00;-18096.09;4973162;28;20024;-81
2023/02/24 10:45:16;;;;;;;;;;;;;;;2.55;100.00;-18096.25;4964612;28;19984;-81
2023/02/24 10:47:43;;;;;;;;;;;;;;;2.59;100.00;-18097.34;4974747;28;20573;-82
2023/02/24 10:50:42;;;;;;;;;;;;;;;2.55;100.00;-18096.25;4979777;28;20377;-82
2023/02/24 10:53:24;;;;;;;;;;;;;;;2.55;100.00;-18096.38;4964335;28;20421;-81
2023/02/24 10:55:53;;;;;;;;;;;;;;;2.60;100.00;-18097.63;4954609;28;19934;-81
2023/02/24 10:58:27;;;;;;;;;;;;;;;2.64;100.00;-18098.72;4965924;28;20290;-82
2023/02/24 11:01:11;;;;;;;;;;;;;;;2.64;100.00;-18098.72;4969025;28;20008;-81
2023/02/24 11:03:45;;;;;;;;;;;;;;;2.72;100.00;-18101.09;4969192;28;19925;-81
2023/02/24 11:17:25;;;;;;;;;;;;;;;2.84;100.00;-18104.13;4966156;28;19969;-80
2023/02/24 11:19:59;;;;;;;;;;;;;;;2.84;100.00;-18104.25;4947874;28;19923;-81
2023/02/24 11:22:30;;;;;;;;;;;;;;;2.87;100.00;-18105.09;4973633;28;20449;-81
2023/02/24 11:24:56;;;;;;;;;;;;;;;2.86;100.00;-18104.81;4962632;28;20383;-82
2023/02/24 11:27:23;;;;;;;;;;;;;;;2.90;100.00;-18105.94;4959999;28;20018;-81
2023/02/24 11:30:05;;;;;;;;;;;;;;;2.95;100.00;-18107.16;4977550;28;19923;-80
2023/02/24 11:32:44;;;;;;;;;;;;;;;2.98;100.00;-18107.88;4957259;28;20620;-81
2023/02/24 11:35:25;;;;;;;;;;;;;;;2.93;100.00;-18106.75;4977386;28;20306;-81
2023/02/24 11:38:00;;;;;;;;;;;;;;;2.97;100.00;-18107.72;4960063;28;19926;-82
2023/02/24 11:40:28;;;;;;;;;;;;;;;3.02;100.00;-18108.97;4959450;28;19926;-82
2023/02/24 11:42:53;;;;;;;;;;;;;;;3.04;100.00;-18109.66;4963881;28;19926;-81
2023/02/24 11:45:37;;;;;;;;;;;;;;;3.05;100.00;-18109.78;4964716;28;20602;-82
2023/02/24 11:48:13;;;;;;;;;;;;;;;3.04;100.00;-18109.53;4959247;28;19922;-81
2023/02/24 11:51:00;;;;;;;;;;;;;;;3.08;100.00;-18110.78;4964720;28;20005;-82
2023/02/24 11:53:33;;;;;;;;;;;;;;;3.10;100.00;-18111.31;4961027;28;19926;-81
2023/02/24 11:56:04;;;;;;;;;;;;;;;3.10;100.00;-18111.31;4957658;28;20306;-82
2023/02/24 11:58:38;;;;;;;;;;;;;;;3.10;100.00;-18111.19;4955171;28;20000;-82
2023/02/24 12:01:14;;;;;;;;;;;;;;;3.11;100.00;-18111.59;4964349;28;20169;-82
2023/02/24 12:03:48;;;;;;;;;;;;;;;3.13;100.00;-18112.16;4961957;28;20558;-80
2023/02/24 12:06:29;;;;;;;;;;;;;;;3.19;100.00;-18113.66;4974857;28;19922;-82
2023/02/24 12:08:57;;;;;;;;;;;;;;;3.25;100.00;-18115.31;4956596;28;19922;-81
2023/02/24 12:11:44;;;;;;;;;;;;;;;3.22;100.00;-18114.50;4963156;28;19964;-81
2023/02/24 12:14:25;;;;;;;;;;;;;;;3.23;100.00;-18114.78;4974926;28;19980;-82
2023/02/24 12:16:55;;;;;;;;;;;;;;;3.26;100.00;-18115.59;4966322;28;20032;-81
2023/02/24 12:19:20;;;;;;;;;;;;;;;3.30;100.00;-18116.72;4963181;28;20436;-81
2023/02/24 12:21:55;;;;;;;;;;;;;;;3.31;100.00;-18117.00;4963845;28;19930;-81
2023/02/24 12:24:20;;;;;;;;;;;;;;;3.32;100.00;-18117.25;4963724;28;19929;-82
2023/02/24 12:27:10;;;;;;;;;;;;;;;3.34;100.00;-18117.81;4959068;28;19922;-82
2023/02/24 12:29:41;;;;;;;;;;;;;;;3.33;100.00;-18117.41;4963683;28;19961;-83
2023/02/24 12:32:14;;;;;;;;;;;;;;;3.35;100.00;-18118.09;4964630;28;19922;-83
2023/02/24 12:34:55;;;;;;;;;;;;;;;3.38;100.00;-18118.91;4973285;28;19932;-83
2023/02/24 12:37:23;;;;;;;;;;;;;;;3.43;100.00;-18120.16;4969196;28;19926;-80
2023/02/24 12:40:10;;;;;;;;;;;;;;;3.41;100.00;-18119.63;4969784;28;19970;-82
2023/02/24 12:42:48;;;;;;;;;;;;;;;3.47;100.00;-18121.13;4963830;28;19985;-85
2023/02/24 12:45:18;;;;;;;;;;;;;;;3.51;100.00;-18122.22;4962898;28;19958;-81
2023/02/24 12:47:56;;;;;;;;;;;;;;;3.52;100.00;-18122.66;4969346;28;19930;-83
2023/02/24 12:50:36;;;;;;;;;;;;;;;3.56;100.00;-18123.75;4972200;28;19918;-82
2023/02/24 12:53:16;;;;;;;;;;;;;;;3.65;100.00;-18126.09;4949899;28;19927;-83
2023/02/24 12:55:55;;;;;;;;;;;;;;;3.71;100.00;-18127.78;4972486;28;19992;-81
2023/02/24 12:58:24;;;;;;;;;;;;;;;3.70;100.00;-18127.50;4966576;28;19922;-82
2023/02/24 13:00:52;;;;;;;;;;;;;;;3.78;100.00;-18129.56;4958207;28;19929;-84
2023/02/24 13:03:27;;;;;;;;;;;;;;;3.78;100.00;-18129.56;4960530;28;20525;-83
2023/02/24 13:06:04;;;;;;;;;;;;;;;3.81;100.00;-18130.38;4974593;28;20041;-86
2023/02/24 13:08:47;;;;;;;;;;;;;;;3.84;100.00;-18131.34;4964311;28;19922;-82
2023/02/24 13:13:55;;;;;;;;;;;;;;;3.97;100.00;-18134.81;5149594;23;20302;-83